Climatologie pour Saint-Brevin les Pins
Jour • Résumé pour juillet 21, 2017 Système :  Métrique    Anglais   Mixte
« - 1 jour
+ 1 jour »
Jour Semaine Mois Année Personnalisé
  Maximum : Minimum : Moyenne :
Température sous abri : -17.8 °C -9.4 °C -7.6 °C
Point de rosée : -17.8 °C -11.9 °C -10.1 °C
Humidité : Humidity % 60 % 75 %
Vitesse du vent : 0 km/h 0 km/h 15 km/h
Rafale : 0 km/h - -
Direction :- - SW
Pression : 0 hPa 34120.7 hPa -
Précipitations : 200.66 mm    
Historical Graphs
 
 
Tableau de données pour juillet 21, 2017
Heure Tempé Pt rosée Pression Vent Vitesse Rafale Humidité Taux pluie (/hr) Soleil
-17.8 °C -17.8 °C 0 hPa Calm     Humidity % 0 mm SolarRadiationWatts/m^2 W/m2 Conditions
00:00 -8.9 °C -11.9 °C 34371.3 hPa WSW 10.3 km/h 23.3 km/h 71 % 0 mm 0 W/m2
00:05 -9 °C -11.8 °C 34371.3 hPa WNW 2.6 km/h 18.2 km/h 72 % 0 mm 0 W/m2
00:10 -9.1 °C -11.9 °C 34371.3 hPa West 7.7 km/h 23.3 km/h 72 % 0 mm 0 W/m2
00:15 -9.1 °C -11.9 °C 34371.3 hPa West 7.7 km/h 23.3 km/h 72 % 0 mm 0 W/m2
00:20 -9.1 °C -11.9 °C 34371.3 hPa Calm   23.3 km/h 72 % 0 mm 0 W/m2
00:25 -9.1 °C -11.8 °C 34371.3 hPa West 5.1 km/h 18.2 km/h 73 % 0 mm 0 W/m2
00:30 -9.2 °C -11.8 °C 34361.1 hPa SW 2.6 km/h 15.6 km/h 73 % 0 mm 0 W/m2
00:35 -9.4 °C -11.8 °C 34361.1 hPa SW 2.6 km/h 18.2 km/h 75 % 0 mm 0 W/m2
00:40 -9.3 °C -11.7 °C 34361.1 hPa Calm   20.8 km/h 75 % 0 mm 0 W/m2
00:45 -9.1 °C -11.7 °C 34371.3 hPa West 12.9 km/h 20.8 km/h 74 % 0 mm 0 W/m2
00:50 -9.1 °C -11.7 °C 34361.1 hPa WSW 7.7 km/h 18.2 km/h 74 % 0 mm 0 W/m2
00:55 -9 °C -11.6 °C 34361.1 hPa West 10.3 km/h 25.9 km/h 74 % 0 mm 0 W/m2
01:00 -9.1 °C -11.8 °C 34361.1 hPa WNW 2.6 km/h 25.9 km/h 73 % 0 mm 0 W/m2
01:05 -9 °C -11.7 °C 34361.1 hPa Calm   20.8 km/h 73 % 0 mm 0 W/m2
01:10 -8.9 °C -11.6 °C 34361.1 hPa WSW 2.6 km/h 18.2 km/h 73 % 0 mm 0 W/m2
01:15 -9 °C -11.7 °C 34361.1 hPa West 7.7 km/h 15.6 km/h 73 % 0 mm 0 W/m2
01:20 -9 °C -11.6 °C 34361.1 hPa West 10.3 km/h 18.2 km/h 74 % 0 mm 0 W/m2
01:25 -9.1 °C -11.6 °C 34361.1 hPa WSW 7.7 km/h 25.9 km/h 75 % 0 mm 0 W/m2
01:30 -9.1 °C -11.6 °C 34361.1 hPa Calm   25.9 km/h 75 % 0 mm 0 W/m2
01:35 -9.1 °C -11.5 °C 34361.1 hPa West 12.9 km/h 15.6 km/h 75 % 0 mm 0 W/m2
01:40 -9 °C -11.4 °C 34361.1 hPa WSW 2.6 km/h 20.8 km/h 75 % 0 mm 0 W/m2
01:45 -9 °C -11.4 °C 34347.6 hPa Calm   20.8 km/h 75 % 0 mm 0 W/m2
01:50 -8.9 °C -11.4 °C 34347.6 hPa SW 5.1 km/h 18.2 km/h 74 % 0 mm 0 W/m2
01:55 -8.8 °C -11.4 °C 34347.6 hPa WSW 12.9 km/h 20.8 km/h 74 % 0 mm 0 W/m2
02:00 -8.9 °C -11.4 °C 34347.6 hPa SW 12.9 km/h 23.3 km/h 74 % 0 mm 0 W/m2
02:05 -8.8 °C -11.4 °C 34347.6 hPa Calm   25.9 km/h 74 % 0 mm 0 W/m2
02:10 -8.8 °C -11.4 °C 34347.6 hPa WSW 10.3 km/h 25.9 km/h 74 % 0 mm 0 W/m2
02:15 -8.9 °C -11.3 °C 34337.4 hPa WSW 5.1 km/h 18.2 km/h 75 % 0 mm 0 W/m2
02:20 -9.1 °C -11.4 °C 34337.4 hPa SSW 18.2 km/h 18.2 km/h 76 % 0 mm 0 W/m2
02:25 -9 °C -11.4 °C 34337.4 hPa WSW 7.7 km/h 18.2 km/h 75 % 0 mm 0 W/m2
02:30 -8.8 °C -11.4 °C 34337.4 hPa WSW 10.3 km/h 18.2 km/h 74 % 0 mm 0 W/m2
02:35 -8.8 °C -11.3 °C 34337.4 hPa WSW 10.3 km/h 18.2 km/h 74 % 0 mm 0 W/m2
02:40 -8.7 °C -11.4 °C 34337.4 hPa SW 7.7 km/h 18.2 km/h 73 % 0 mm 0 W/m2
02:45 -8.7 °C -11.4 °C 34337.4 hPa West 5.1 km/h 25.9 km/h 73 % 0 mm 0 W/m2
02:50 -8.7 °C -11.5 °C 34327.3 hPa WSW 2.6 km/h 25.9 km/h 72 % 0 mm 0 W/m2
02:55 -8.7 °C -11.5 °C 34327.3 hPa Calm   18.2 km/h 72 % 0 mm 0 W/m2
03:00 -8.8 °C -11.6 °C 34327.3 hPa West 15.6 km/h 18.2 km/h 72 % 0 mm 0 W/m2
03:05 -8.8 °C -11.6 °C 34327.3 hPa WSW 2.6 km/h 15.6 km/h 72 % 0 mm 0 W/m2
03:10 -8.8 °C -11.6 °C 34327.3 hPa SW 7.7 km/h 15.6 km/h 73 % 0 mm 0 W/m2
03:15 -8.8 °C -11.5 °C 34327.3 hPa SW 12.9 km/h 23.3 km/h 73 % 0 mm 0 W/m2
03:20 -8.8 °C -11.4 °C 34327.3 hPa SW 5.1 km/h 23.3 km/h 73 % 0 mm 0 W/m2
03:25 -8.7 °C -11.4 °C 34313.7 hPa WSW 7.7 km/h 18.2 km/h 73 % 0 mm 0 W/m2
03:30 -8.7 °C -11.4 °C 34313.7 hPa Calm   18.2 km/h 73 % 0 mm 0 W/m2
03:35 -8.7 °C -11.4 °C 34313.7 hPa WSW 15.6 km/h 20.8 km/h 73 % 0 mm 0 W/m2
03:40 -8.7 °C -11.3 °C 34313.7 hPa SW 15.6 km/h 25.9 km/h 73 % 0 mm 0 W/m2
03:45 -8.5 °C -11.2 °C 34313.7 hPa SW 15.6 km/h 25.9 km/h 73 % 0 mm 0 W/m2
03:50 -8.5 °C -11.2 °C 34313.7 hPa Calm   23.3 km/h 73 % 0 mm 0 W/m2
03:55 -8.6 °C -11.3 °C 34313.7 hPa SW 7.7 km/h 23.3 km/h 73 % 0 mm 0 W/m2
04:00 -8.6 °C -11.3 °C 34303.6 hPa SW 5.1 km/h 20.8 km/h 73 % 0 mm 0 W/m2
04:05 -8.6 °C -11.2 °C 34303.6 hPa West 7.7 km/h 20.8 km/h 74 % 0 mm 0 W/m2
04:10 -8.4 °C -11.2 °C 34303.6 hPa WSW 7.7 km/h 25.9 km/h 73 % 0 mm 0 W/m2
04:15 -8.4 °C -10.7 °C 34303.6 hPa West 15.6 km/h 31.1 km/h 76 % 0 mm 0 W/m2
04:20 -8.4 °C -10.7 °C 34303.6 hPa West 15.6 km/h 31.1 km/h 76 % 0 mm 0 W/m2
04:25 -8.4 °C -10.9 °C 34303.6 hPa WSW 12.9 km/h 31.1 km/h 75 % 0 mm 0 W/m2
04:30 -8.4 °C -10.9 °C 34303.6 hPa SW 5.1 km/h 31.1 km/h 75 % 0 mm 0 W/m2
04:35 -8.4 °C -10.8 °C 34303.6 hPa SW 28.5 km/h 31.1 km/h 75 % 0 mm 0 W/m2
04:45 -8.3 °C -11.1 °C 34293.4 hPa WSW 10.3 km/h 33.6 km/h 73 % 0 mm 0 W/m2
04:50 -8.3 °C -11.2 °C 34293.4 hPa WSW 20.8 km/h 36.2 km/h 71 % 0 mm 0 W/m2
04:55 -8.3 °C -11.4 °C 34293.4 hPa WSW 12.9 km/h 44.1 km/h 69 % 0 mm 0 W/m2
05:00 -8.2 °C -11.7 °C 34293.4 hPa SW 20.8 km/h 44.1 km/h 67 % 0 mm 0 W/m2
05:05 -8.3 °C -11.4 °C 34293.4 hPa WSW 7.7 km/h 25.9 km/h 69 % 0 mm 0 W/m2
05:10 -8.3 °C -11.2 °C 34293.4 hPa SW 7.7 km/h 31.1 km/h 71 % 0 mm 0 W/m2
05:20 -8.2 °C -10.9 °C 34293.4 hPa WSW 12.9 km/h 25.9 km/h 73 % 0 mm 0 W/m2
05:25 -8.2 °C -10.8 °C 34293.4 hPa WSW 15.6 km/h 28.5 km/h 74 % 0 mm 0 W/m2
05:30 -8.2 °C -10.8 °C 34279.9 hPa WSW 10.3 km/h 28.5 km/h 74 % 0 mm 0 W/m2
05:35 -8.3 °C -10.9 °C 34279.9 hPa WSW 5.1 km/h 28.5 km/h 74 % 0 mm 0 W/m2
05:40 -8.3 °C -10.9 °C 34279.9 hPa WSW 12.9 km/h 23.3 km/h 74 % 0 mm 0 W/m2
05:45 -8.3 °C -10.8 °C 34279.9 hPa WSW 5.1 km/h 23.3 km/h 75 % 0 mm 0 W/m2
05:50 -8.3 °C -10.7 °C 34279.9 hPa Calm   20.8 km/h 76 % 0 mm 0 W/m2
05:55 -8.3 °C -10.7 °C 34279.9 hPa SW 15.6 km/h 23.3 km/h 76 % 0 mm 0 W/m2
06:00 -8.3 °C -10.7 °C 34279.9 hPa SW 7.7 km/h 23.3 km/h 76 % 0 mm 0 W/m2
06:05 -8.3 °C -10.6 °C 34279.9 hPa Calm   20.8 km/h 77 % 0 mm 0 W/m2
06:10 -8.4 °C -10.5 °C 34279.9 hPa SSW 2.6 km/h 20.8 km/h 78 % 0 mm 0 W/m2
06:15 -8.4 °C -10.6 °C 34279.9 hPa WSW 5.1 km/h 20.8 km/h 78 % 0 mm 0 W/m2
06:20 -8.5 °C -10.6 °C 34279.9 hPa West 7.7 km/h 20.8 km/h 79 % 0 mm 0 W/m2
06:25 -8.6 °C -10.5 °C 34269.7 hPa WSW 7.7 km/h 15.6 km/h 80 % 0 mm 0 W/m2
06:30 -8.6 °C -10.5 °C 34269.7 hPa Calm   12.9 km/h 80 % 0 mm 0 W/m2
06:35 -8.6 °C -10.7 °C 34269.7 hPa WSW 5.1 km/h 18.2 km/h 78 % 0 mm 0 W/m2
06:40 -8.4 °C -10.8 °C 34269.7 hPa WSW 7.7 km/h 18.2 km/h 76 % 0 mm 0 W/m2
06:45 -8.4 °C -10.9 °C 34269.7 hPa WSW 15.6 km/h 18.2 km/h 75 % 0 mm 0 W/m2
06:50 -8.4 °C -11 °C 34269.7 hPa West 5.1 km/h 20.8 km/h 74 % 0 mm 5 W/m2
06:55 -8.4 °C -10.9 °C 34269.7 hPa WSW 7.7 km/h 23.3 km/h 74 % 0 mm 7 W/m2
07:00 -8.3 °C -10.8 °C 34269.7 hPa West 7.7 km/h 23.3 km/h 75 % 0 mm 11 W/m2
07:05 -8.3 °C -10.9 °C 34269.7 hPa WSW 20.8 km/h 20.8 km/h 74 % 0 mm 11 W/m2
07:10 -8.2 °C -10.9 °C 34269.7 hPa SSW 7.7 km/h 25.9 km/h 73 % 0 mm 16 W/m2
07:15 -8.2 °C -10.8 °C 34269.7 hPa WSW 5.1 km/h 25.9 km/h 74 % 0 mm 19 W/m2
07:20 -8.1 °C -10.7 °C 34269.7 hPa South 2.6 km/h 23.3 km/h 74 % 0 mm 21 W/m2
07:25 -8.1 °C -10.7 °C 34269.7 hPa WSW 7.7 km/h 20.8 km/h 74 % 0 mm 18 W/m2
07:30 -8 °C -10.5 °C 34269.7 hPa SSW 2.6 km/h 23.3 km/h 75 % 0 mm 19 W/m2
07:35 -8 °C -10.5 °C 34269.7 hPa SW 12.9 km/h 23.3 km/h 75 % 0 mm 26 W/m2
07:40 -7.9 °C -10.6 °C 34269.7 hPa South 2.6 km/h 23.3 km/h 74 % 0 mm 18 W/m2
07:45 -7.9 °C -10.4 °C 34269.7 hPa West 10.3 km/h 23.3 km/h 75 % 0 mm 19 W/m2
07:50 -7.9 °C -10.7 °C 34269.7 hPa West 12.9 km/h 23.3 km/h 73 % 0 mm 25 W/m2
07:55 -7.9 °C -10.7 °C 34269.7 hPa WSW 25.9 km/h 31.1 km/h 73 % 0 mm 19 W/m2
08:00 -8.1 °C -10.4 °C 34269.7 hPa WNW 10.3 km/h 33.6 km/h 76 % 0 mm 25 W/m2
08:05 -8.2 °C -10.3 °C 34269.7 hPa West 15.6 km/h 33.6 km/h 79 % 0 mm 19 W/m2
08:10 -8.4 °C -10.1 °C 34269.7 hPa SSW 5.1 km/h 33.6 km/h 82 % 0 mm 25 W/m2
08:15 -8.6 °C -10.1 °C 34256.2 hPa South 10.3 km/h 25.9 km/h 84 % 0 mm 25 W/m2
08:20 -8.7 °C -10.1 °C 34256.2 hPa SW 2.6 km/h 23.3 km/h 85 % 0 mm 19 W/m2
08:25 -8.7 °C -10.1 °C 34269.7 hPa WNW 2.6 km/h 20.8 km/h 85 % 0 mm 21 W/m2
08:30 -8.7 °C -10.1 °C 34269.7 hPa SW 12.9 km/h 20.8 km/h 85 % 0 mm 25 W/m2
08:35 -8.7 °C -10.2 °C 34269.7 hPa SW 10.3 km/h 20.8 km/h 84 % 0 mm 25 W/m2
08:40 -8.7 °C -10.1 °C 34269.7 hPa SW 10.3 km/h 20.8 km/h 85 % 7.62 mm 28 W/m2
08:45 -8.7 °C -10.1 °C 34269.7 hPa SSW 7.7 km/h 28.5 km/h 85 % 7.62 mm 51 W/m2
08:50 -8.7 °C -10.1 °C 34269.7 hPa WSW 10.3 km/h 36.2 km/h 85 % 7.62 mm 39 W/m2
08:55 -8.8 °C -10.1 °C 34269.7 hPa WSW 15.6 km/h 36.2 km/h 86 % 12.7 mm 56 W/m2
09:00 -8.8 °C -10 °C 34256.2 hPa Calm   28.5 km/h 87 % 12.7 mm 70 W/m2
09:05 -8.7 °C -9.9 °C 34256.2 hPa South 18.2 km/h 20.8 km/h 87 % 12.7 mm 74 W/m2
09:10 -8.7 °C -10.1 °C 34269.7 hPa West 12.9 km/h 20.8 km/h 85 % 12.7 mm 30 W/m2
09:15 -8.7 °C -10 °C 34269.7 hPa WNW 2.6 km/h 36.2 km/h 86 % 12.7 mm 40 W/m2
09:20 -8.8 °C -10.1 °C 34269.7 hPa Calm   36.2 km/h 86 % 12.7 mm 33 W/m2
09:25 -8.7 °C -9.9 °C 34269.7 hPa West 12.9 km/h 28.5 km/h 87 % 12.7 mm 54 W/m2
09:30 -8.6 °C -9.9 °C 34269.7 hPa West 15.6 km/h 31.1 km/h 86 % 12.7 mm 74 W/m2
09:35 -8.5 °C -10.1 °C 34269.7 hPa WSW 15.6 km/h 36.2 km/h 84 % 12.7 mm 76 W/m2
09:40 -8.4 °C -10.1 °C 34269.7 hPa SW 12.9 km/h 36.2 km/h 83 % 7.62 mm 84 W/m2
09:45 -8.3 °C -9.9 °C 34256.2 hPa SW 2.6 km/h 28.5 km/h 83 % 7.62 mm 128 W/m2
09:50 -8.2 °C -9.9 °C 34256.2 hPa Calm   31.1 km/h 82 % 7.62 mm 151 W/m2
09:55 -8 °C -9.6 °C 34256.2 hPa WSW 18.2 km/h 31.1 km/h 83 % 0 mm 171 W/m2
10:00 -7.9 °C -9.7 °C 34256.2 hPa West 18.2 km/h 25.9 km/h 81 % 0 mm 190 W/m2
10:05 -7.7 °C -9.7 °C 34256.2 hPa SW 7.7 km/h 25.9 km/h 80 % 0 mm 209 W/m2
10:10 -7.7 °C -9.7 °C 34256.2 hPa NNW 15.6 km/h 28.5 km/h 79 % 0 mm 165 W/m2
10:15 -7.7 °C -9.9 °C 34256.2 hPa West 15.6 km/h 31.1 km/h 77 % 0 mm 246 W/m2
10:20 -7.6 °C -9.8 °C 34256.2 hPa WSW 7.7 km/h 31.1 km/h 77 % 0 mm 250 W/m2
10:25 -7.4 °C -9.7 °C 34256.2 hPa WNW 2.6 km/h 28.5 km/h 77 % 0 mm 223 W/m2
10:30 -7.4 °C -9.8 °C 34256.2 hPa West 18.2 km/h 31.1 km/h 77 % 0 mm 88 W/m2
10:35 -7.7 °C -9.7 °C 34256.2 hPa SW 12.9 km/h 31.1 km/h 80 % 0 mm 146 W/m2
10:40 -7.8 °C -9.8 °C 34256.2 hPa SW 2.6 km/h 28.5 km/h 80 % 0 mm 165 W/m2
10:45 -7.7 °C -9.9 °C 34256.2 hPa WSW 5.1 km/h 28.5 km/h 78 % 0 mm 186 W/m2
10:50 -7.7 °C -10.1 °C 34246 hPa WSW 15.6 km/h 28.5 km/h 76 % 0 mm 220 W/m2
10:55 -7.6 °C -9.9 °C 34246 hPa SSW 18.2 km/h 31.1 km/h 76 % 0 mm 281 W/m2
11:00 -7.4 °C -10 °C 34246 hPa SW 31.1 km/h 33.6 km/h 74 % 0 mm 338 W/m2
11:05 -7.2 °C -10 °C 34246 hPa West 7.7 km/h 33.6 km/h 73 % 0 mm 367 W/m2
11:10 -7.1 °C -9.8 °C 34246 hPa SSW 15.6 km/h 31.1 km/h 73 % 0 mm 290 W/m2
11:15 -7.1 °C -9.8 °C 34246 hPa Calm   31.1 km/h 73 % 0 mm 271 W/m2
11:20 -7.2 °C -10.1 °C 34246 hPa SSW 10.3 km/h 33.6 km/h 72 % 0 mm 214 W/m2
11:25 -7.3 °C -10 °C 34246 hPa SSW 15.6 km/h 33.6 km/h 73 % 0 mm 220 W/m2
11:30 -7.3 °C -10.1 °C 34246 hPa SW 23.3 km/h 33.6 km/h 73 % 0 mm 244 W/m2
11:35 -7.3 °C -10.1 °C 34246 hPa SSW 23.3 km/h 41.4 km/h 72 % 0 mm 295 W/m2
11:40 -7.2 °C -9.9 °C 34246 hPa SW 25.9 km/h 41.4 km/h 73 % 0 mm 302 W/m2
11:45 -7.1 °C -9.8 °C 34246 hPa SW 2.6 km/h 31.1 km/h 73 % 0 mm 352 W/m2
11:50 -7 °C -9.7 °C 34246 hPa SSW 10.3 km/h 25.9 km/h 73 % 0 mm 411 W/m2
11:55 -6.8 °C -9.4 °C 34246 hPa SW 15.6 km/h 28.5 km/h 74 % 0 mm 306 W/m2
12:00 -6.9 °C -9.8 °C 34246 hPa WSW 18.2 km/h 36.2 km/h 72 % 0 mm 399 W/m2
12:05 -6.7 °C -9.7 °C 34246 hPa SW 12.9 km/h 36.2 km/h 71 % 0 mm 454 W/m2
12:10 -6.4 °C -9.3 °C 34246 hPa WSW 20.8 km/h 38.8 km/h 72 % 0 mm 854 W/m2
12:15 -6.3 °C -9.4 °C 34246 hPa SW 28.5 km/h 41.4 km/h 70 % 0 mm 849 W/m2
12:20 -6.3 °C -9.7 °C 34246 hPa SW 15.6 km/h 41.4 km/h 68 % 0 mm 851 W/m2
12:25 -6.2 °C -9.7 °C 34246 hPa West 12.9 km/h 38.8 km/h 67 % 0 mm 821 W/m2
12:30 -6.1 °C -9.7 °C 34246 hPa WSW 20.8 km/h 38.8 km/h 67 % 0 mm 821 W/m2
12:35 -6 °C -9.7 °C 34246 hPa SW 25.9 km/h 36.2 km/h 66 % 0 mm 888 W/m2
12:40 -6.2 °C -9.7 °C 34246 hPa West 23.3 km/h 46.7 km/h 67 % 0 mm 823 W/m2
12:45 -6.2 °C -9.7 °C 34246 hPa SSW 18.2 km/h 46.7 km/h 67 % 0 mm 877 W/m2
12:50 -6.1 °C -9.6 °C 34235.8 hPa South 25.9 km/h 44.1 km/h 67 % 0 mm 786 W/m2
12:55 -6.3 °C -9.7 °C 34235.8 hPa SW 12.9 km/h 44.1 km/h 68 % 0 mm 846 W/m2
13:00 -5.8 °C -9.4 °C 34235.8 hPa WNW 31.1 km/h 44.1 km/h 67 % 0 mm 861 W/m2
13:05 -5.8 °C -9.6 °C 34235.8 hPa SW 12.9 km/h 44.1 km/h 65 % 0 mm 886 W/m2
13:10 -5.9 °C -9.9 °C 34235.8 hPa WSW 33.6 km/h 41.4 km/h 64 % 0 mm 884 W/m2
13:15 -5.7 °C -9.4 °C 34235.8 hPa SW 25.9 km/h 41.4 km/h 65 % 0 mm 835 W/m2
13:20 -5.6 °C -9.4 °C 34235.8 hPa West 18.2 km/h 41.4 km/h 65 % 0 mm 877 W/m2
13:25 -5.6 °C -10.1 °C 34235.8 hPa SSW 25.9 km/h 38.8 km/h 60 % 0 mm 896 W/m2
13:30 -5.7 °C -9.8 °C 34235.8 hPa West 15.6 km/h 41.4 km/h 63 % 0 mm 891 W/m2
13:35 -5.3 °C -9.7 °C 34222.3 hPa SSW 12.9 km/h 41.4 km/h 61 % 0 mm 997 W/m2
13:40 -5.5 °C -9.7 °C 34235.8 hPa NW 20.8 km/h 41.4 km/h 62 % 0 mm 972 W/m2
13:45 -5.7 °C -9.9 °C 34222.3 hPa WSW 20.8 km/h 49.2 km/h 62 % 0 mm 972 W/m2
13:50 -6.1 °C -9.8 °C 34222.3 hPa SSW 28.5 km/h 49.2 km/h 66 % 0 mm 972 W/m2
13:55 -6.1 °C -9.7 °C 34222.3 hPa West 10.3 km/h 44.1 km/h 66 % 0 mm 367 W/m2
14:00 -6.1 °C -9.6 °C 34222.3 hPa SW 18.2 km/h 41.4 km/h 67 % 0 mm 315 W/m2
14:05 -6.2 °C -9.9 °C 34235.8 hPa South 7.7 km/h 51.8 km/h 66 % 0 mm 316 W/m2
14:10 -6.4 °C -9.8 °C 34222.3 hPa SSW 18.2 km/h 51.8 km/h 68 % 0 mm 167 W/m2
14:15 -6.7 °C -9.9 °C 34222.3 hPa West 5.1 km/h 41.4 km/h 69 % 0 mm 207 W/m2
14:20 -6.6 °C -9.9 °C 34222.3 hPa SW 10.3 km/h 44.1 km/h 69 % 0 mm 427 W/m2
14:25 -6.2 °C -9.7 °C 34222.3 hPa SW 20.8 km/h 46.7 km/h 67 % 0 mm 1106 W/m2
14:30 -5.9 °C -9.7 °C 34235.8 hPa SW 25.9 km/h 46.7 km/h 65 % 0 mm 550 W/m2
14:35 -6.1 °C -9.9 °C 34222.3 hPa South 23.3 km/h 44.1 km/h 65 % 0 mm 476 W/m2
14:40 -5.9 °C -9.6 °C 34222.3 hPa SW 12.9 km/h 44.1 km/h 66 % 0 mm 533 W/m2
14:45 -5.9 °C -9.8 °C 34235.8 hPa SSW 28.5 km/h 38.8 km/h 65 % 0 mm 497 W/m2
14:50 -6.2 °C -9.9 °C 34222.3 hPa SSW 23.3 km/h 46.7 km/h 65 % 0 mm 434 W/m2
14:55 -6.3 °C -9.9 °C 34222.3 hPa WSW 15.6 km/h 46.7 km/h 67 % 0 mm 392 W/m2
15:00 -6.4 °C -10.1 °C 34222.3 hPa SW 28.5 km/h 38.8 km/h 66 % 0 mm 327 W/m2
15:05 -6.5 °C -10.1 °C 34235.8 hPa SW 23.3 km/h 44.1 km/h 67 % 0 mm 364 W/m2
15:10 -6.4 °C -10.1 °C 34222.3 hPa SW 10.3 km/h 44.1 km/h 66 % 0 mm 323 W/m2
15:15 -6.6 °C -9.9 °C 34222.3 hPa SSE 10.3 km/h 46.7 km/h 68 % 0 mm 258 W/m2
15:20 -6.6 °C -9.7 °C 34222.3 hPa SW 10.3 km/h 46.7 km/h 70 % 0 mm 369 W/m2
15:25 -6.4 °C -9.7 °C 34222.3 hPa WSW 7.7 km/h 41.4 km/h 69 % 0 mm 369 W/m2
15:30 -6.4 °C -9.8 °C 34222.3 hPa WSW 28.5 km/h 41.4 km/h 68 % 0 mm 378 W/m2
15:35 -6.5 °C -9.7 °C 34222.3 hPa SW 15.6 km/h 44.1 km/h 70 % 0 mm 313 W/m2
15:40 -6.6 °C -9.7 °C 34222.3 hPa WSW 18.2 km/h 46.7 km/h 70 % 0 mm 255 W/m2
15:45 -6.6 °C -9.7 °C 34222.3 hPa South 10.3 km/h 46.7 km/h 70 % 0 mm 290 W/m2
15:50 -6.6 °C -9.7 °C 34222.3 hPa WSW 20.8 km/h 38.8 km/h 70 % 0 mm 436 W/m2
15:55 -6.3 °C -9.6 °C 34222.3 hPa West 7.7 km/h 44.1 km/h 69 % 0 mm 459 W/m2
16:00 -6.3 °C -9.7 °C 34222.3 hPa SW 7.7 km/h 44.1 km/h 68 % 0 mm 237 W/m2
16:05 -6.6 °C -9.8 °C 34222.3 hPa SW 31.1 km/h 44.1 km/h 69 % 0 mm 156 W/m2
16:10 -6.8 °C -9.8 °C 34222.3 hPa SSW 10.3 km/h 44.1 km/h 71 % 0 mm 90 W/m2
16:15 -7 °C -9.6 °C 34212.1 hPa SW 7.7 km/h 41.4 km/h 74 % 0 mm 199 W/m2
16:20 -7.1 °C -9.6 °C 34212.1 hPa SW 15.6 km/h 51.8 km/h 76 % 0 mm 290 W/m2
16:25 -7 °C -9.5 °C 34212.1 hPa SW 18.2 km/h 51.8 km/h 75 % 0 mm 251 W/m2
16:30 -6.8 °C -9.3 °C 34212.1 hPa WSW 18.2 km/h 41.4 km/h 76 % 0 mm 357 W/m2
16:35 -6.6 °C -9.2 °C 34212.1 hPa SSW 5.1 km/h 41.4 km/h 74 % 0 mm 441 W/m2
16:40 -6.4 °C -9.4 °C 34198.6 hPa SSE 12.9 km/h 36.2 km/h 71 % 0 mm 255 W/m2
16:45 -6.5 °C -9.6 °C 34198.6 hPa SSW 18.2 km/h 36.2 km/h 71 % 0 mm 304 W/m2
16:50 -6.4 °C -9.3 °C 34198.6 hPa SSW 31.1 km/h 41.4 km/h 72 % 0 mm 461 W/m2
16:55 -6.3 °C -9.6 °C 34198.6 hPa WSW 2.6 km/h 44.1 km/h 69 % 0 mm 348 W/m2
17:00 -6.3 °C -9.6 °C 34198.6 hPa South 23.3 km/h 44.1 km/h 69 % 0 mm 360 W/m2
17:05 -6.3 °C -9.7 °C 34198.6 hPa South 36.2 km/h 54.4 km/h 68 % 0 mm 434 W/m2
17:10 -6.3 °C -9.8 °C 34198.6 hPa South 38.8 km/h 54.4 km/h 68 % 0 mm 320 W/m2
17:15 -6.6 °C -9.7 °C 34198.6 hPa SW 18.2 km/h 54.4 km/h 70 % 0 mm 260 W/m2
17:20 -6.6 °C -9.4 °C 34198.6 hPa SW 20.8 km/h 54.4 km/h 72 % 0 mm 362 W/m2
17:25 -6.3 °C -9.3 °C 34198.6 hPa SSW 18.2 km/h 49.2 km/h 71 % 0 mm 350 W/m2
17:30 -5.8 °C -9.1 °C 34188.4 hPa SSW 20.8 km/h 49.2 km/h 69 % 0 mm 826 W/m2
17:35 -5.7 °C -9.3 °C 34188.4 hPa South 46.7 km/h 54.4 km/h 67 % 0 mm 707 W/m2
17:40 -5.9 °C -9.3 °C 34188.4 hPa SSW 25.9 km/h 57 km/h 68 % 0 mm 719 W/m2
17:45 -5.8 °C -9.3 °C 34188.4 hPa SSW 25.9 km/h 57 km/h 68 % 0 mm 612 W/m2
17:50 -5.9 °C -9.2 °C 34188.4 hPa West 18.2 km/h 54.4 km/h 69 % 0 mm 612 W/m2
17:55 -6.3 °C -9.5 °C 34188.4 hPa South 10.3 km/h 54.4 km/h 70 % 0 mm 285 W/m2
18:00 -6.4 °C -9.4 °C 34188.4 hPa South 20.8 km/h 51.8 km/h 71 % 0 mm 399 W/m2
18:05 -6.3 °C -9.3 °C 34188.4 hPa West 10.3 km/h 51.8 km/h 71 % 0 mm 294 W/m2
18:10 -6.3 °C -9.3 °C 34188.4 hPa South 10.3 km/h 46.7 km/h 72 % 0 mm 267 W/m2
18:15 -6.3 °C -9.3 °C 34178.3 hPa SW 18.2 km/h 46.7 km/h 71 % 0 mm 403 W/m2
18:20 -6.3 °C -9.3 °C 34178.3 hPa SW 15.6 km/h 44.1 km/h 71 % 0 mm 265 W/m2
18:25 -6.4 °C -9.3 °C 34188.4 hPa West 18.2 km/h 44.1 km/h 72 % 0 mm 265 W/m2
18:30 -6.5 °C -9.3 °C 34178.3 hPa South 25.9 km/h 44.1 km/h 73 % 0 mm 232 W/m2
18:35 -6.5 °C -9.4 °C 34178.3 hPa WNW 25.9 km/h 44.1 km/h 72 % 0 mm 214 W/m2
18:40 -6.6 °C -9.6 °C 34178.3 hPa SW 41.4 km/h 46.7 km/h 71 % 0 mm 179 W/m2
18:45 -6.6 °C -9.5 °C 34178.3 hPa West 10.3 km/h 51.8 km/h 72 % 0 mm 123 W/m2
18:50 -6.7 °C -9.4 °C 34178.3 hPa WSW 5.1 km/h 51.8 km/h 73 % 0 mm 156 W/m2
18:55 -6.6 °C -9.3 °C 34178.3 hPa SSW 18.2 km/h 51.8 km/h 74 % 0 mm 195 W/m2
19:00 -6.6 °C -9.3 °C 34178.3 hPa WSW 23.3 km/h 51.8 km/h 73 % 0 mm 206 W/m2
19:05 -6.7 °C -9.4 °C 34178.3 hPa SSW 44.1 km/h 44.1 km/h 73 % 0 mm 132 W/m2
19:10 -6.7 °C -9.4 °C 34178.3 hPa SW 23.3 km/h 54.4 km/h 74 % 0 mm 116 W/m2
19:15 -6.8 °C -9.4 °C 34164.7 hPa South 25.9 km/h 54.4 km/h 74 % 0 mm 109 W/m2
19:20 -6.8 °C -9.3 °C 34164.7 hPa SW 18.2 km/h 51.8 km/h 75 % 0 mm 130 W/m2
19:25 -6.7 °C -9.3 °C 34164.7 hPa SSW 15.6 km/h 51.8 km/h 75 % 0 mm 155 W/m2
19:30 -6.7 °C -9.1 °C 34164.7 hPa South 23.3 km/h 46.7 km/h 76 % 0 mm 114 W/m2
19:35 -6.7 °C -9.1 °C 34154.6 hPa SSW 18.2 km/h 46.7 km/h 76 % 0 mm 137 W/m2
19:40 -6.7 °C -9.3 °C 34154.6 hPa SW 7.7 km/h 44.1 km/h 75 % 0 mm 139 W/m2
19:45 -6.8 °C -9.2 °C 34154.6 hPa WSW 20.8 km/h 44.1 km/h 76 % 0 mm 111 W/m2
19:50 -6.8 °C -9.3 °C 34154.6 hPa SSW 15.6 km/h 38.8 km/h 76 % 0 mm 127 W/m2
19:55 -6.8 °C -9.2 °C 34154.6 hPa SSE 7.7 km/h 41.4 km/h 76 % 0 mm 114 W/m2
20:00 -6.8 °C -9.2 °C 34154.6 hPa SSW 25.9 km/h 41.4 km/h 76 % 0 mm 162 W/m2
20:05 -6.7 °C -9.3 °C 34164.7 hPa SSE 25.9 km/h 49.2 km/h 75 % 0 mm 146 W/m2
20:10 -6.8 °C -9.2 °C 34164.7 hPa SSW 25.9 km/h 49.2 km/h 76 % 0 mm 63 W/m2
20:15 -6.8 °C -9.2 °C 34154.6 hPa SSE 20.8 km/h 41.4 km/h 76 % 0 mm 37 W/m2
20:20 -6.9 °C -9.2 °C 34154.6 hPa WSW 23.3 km/h 46.7 km/h 77 % 0 mm 28 W/m2
20:25 -7.1 °C -9.2 °C 34154.6 hPa WSW 10.3 km/h 51.8 km/h 78 % 0 mm 21 W/m2
20:30 -7.1 °C -9.3 °C 34154.6 hPa SW 49.2 km/h 51.8 km/h 78 % 0 mm 19 W/m2
20:35 -7.1 °C -9.3 °C 34144.4 hPa South 15.6 km/h 51.8 km/h 78 % 0 mm 26 W/m2
20:40 -7.1 °C -9.3 °C 34144.4 hPa SSW 33.6 km/h 57 km/h 78 % 0 mm 37 W/m2
20:45 -7.1 °C -9.3 °C 34144.4 hPa SSW 41.4 km/h 67.3 km/h 78 % 0 mm 26 W/m2
20:50 -7.1 °C -9.3 °C 34144.4 hPa SW 28.5 km/h 67.3 km/h 78 % 0 mm 26 W/m2
20:55 -7.1 °C -9.3 °C 34144.4 hPa South 25.9 km/h 57 km/h 78 % 0 mm 19 W/m2
21:00 -7.1 °C -9.2 °C 34144.4 hPa SSW 36.2 km/h 57 km/h 79 % 0 mm 11 W/m2
21:05 -7.1 °C -9.2 °C 34144.4 hPa SSW 28.5 km/h 49.2 km/h 79 % 0 mm 9 W/m2
21:10 -7.1 °C -9.2 °C 34144.4 hPa SW 33.6 km/h 49.2 km/h 79 % 0 mm 0 W/m2
21:15 -7.1 °C -9.1 °C 34130.9 hPa South 31.1 km/h 46.7 km/h 80 % 0 mm 0 W/m2
21:20 -7.1 °C -9.1 °C 34130.9 hPa SSW 10.3 km/h 46.7 km/h 80 % 0 mm 0 W/m2
21:25 -7.1 °C -9.1 °C 34130.9 hPa SSW 23.3 km/h 57 km/h 80 % 0 mm 0 W/m2
21:30 -7.1 °C -9.1 °C 34130.9 hPa SSW 23.3 km/h 57 km/h 80 % 0 mm 0 W/m2
21:35 -7.1 °C -9.1 °C 34130.9 hPa SSW 31.1 km/h 51.8 km/h 80 % 0 mm 0 W/m2
21:40 -7.1 °C -9.1 °C 34130.9 hPa WSW 28.5 km/h 57 km/h 80 % 0 mm 0 W/m2
21:45 -7.1 °C -9.1 °C 34120.7 hPa SW 10.3 km/h 57 km/h 80 % 0 mm 0 W/m2
21:50 -7.1 °C -8.9 °C 34130.9 hPa SSW 57 km/h 57 km/h 81 % 0 mm 0 W/m2
21:55 -7.1 °C -8.9 °C 34120.7 hPa SSW 23.3 km/h 69.8 km/h 81 % 0 mm 0 W/m2
22:00 -7.1 °C -8.9 °C 34120.7 hPa SSW 46.7 km/h 69.8 km/h 81 % 0 mm 0 W/m2
22:05 -7.1 °C -8.9 °C 34120.7 hPa South 25.9 km/h 51.8 km/h 81 % 0 mm 0 W/m2
22:10 -7.1 °C -8.9 °C 34120.7 hPa SW 15.6 km/h 51.8 km/h 81 % 0 mm 0 W/m2
22:15 -7.1 °C -8.9 °C 34120.7 hPa SSW 28.5 km/h 57 km/h 81 % 0 mm 0 W/m2
22:20 -7.1 °C -8.9 °C 34120.7 hPa SSW 18.2 km/h 57 km/h 81 % 0 mm 0 W/m2
22:25 -7.1 °C -8.9 °C 34120.7 hPa South 51.8 km/h 64.7 km/h 81 % 0 mm 0 W/m2
22:30 -7.1 °C -8.9 °C 34120.7 hPa SW 25.9 km/h 64.7 km/h 81 % 0 mm 0 W/m2
22:35 -7.1 °C -8.9 °C 34120.7 hPa SSW 20.8 km/h 75.2 km/h 81 % 0 mm 0 W/m2
22:40 -7.1 °C -8.8 °C 34120.7 hPa SSW 28.5 km/h 77.7 km/h 83 % 0 mm 0 W/m2
22:45 -7.3 °C -8.8 °C 34120.7 hPa SSW 20.8 km/h 77.7 km/h 85 % 0 mm 0 W/m2
22:55 -7.8 °C -8.8 °C 34144.4 hPa WNW 23.3 km/h 54.4 km/h 89 % 83.82 mm 0 W/m2
23:00 -8.2 °C -9.1 °C 34144.4 hPa West 15.6 km/h 54.4 km/h 90 % 121.92 mm 0 W/m2
23:05 -8.4 °C -9.2 °C 34144.4 hPa WNW 15.6 km/h 38.8 km/h 92 % 147.32 mm 0 W/m2
23:10 -8.6 °C -9.2 °C 34154.6 hPa WNW 20.8 km/h 36.2 km/h 93 % 160.02 mm 0 W/m2
23:15 -8.8 °C -9.4 °C 34154.6 hPa WNW 15.6 km/h 31.1 km/h 93 % 175.26 mm 0 W/m2
23:20 -8.8 °C -9.5 °C 34154.6 hPa NW 12.9 km/h 31.1 km/h 93 % 180.34 mm 0 W/m2
23:25 -8.9 °C -9.5 °C 34154.6 hPa WNW 7.7 km/h 23.3 km/h 94 % 180.34 mm 0 W/m2
23:30 -9 °C -9.6 °C 34154.6 hPa NW 10.3 km/h 28.5 km/h 94 % 187.96 mm 0 W/m2
23:35 -9.1 °C -9.6 °C 34154.6 hPa NW 7.7 km/h 28.5 km/h 94 % 187.96 mm 0 W/m2
23:40 -9.1 °C -9.5 °C 34154.6 hPa West 20.8 km/h 23.3 km/h 95 % 187.96 mm 0 W/m2
23:45 -9.1 °C -9.5 °C 34154.6 hPa Calm   23.3 km/h 95 % 187.96 mm 0 W/m2
23:50 -9.1 °C -9.6 °C 34164.7 hPa WNW 10.3 km/h 20.8 km/h 95 % 154.94 mm 0 W/m2
23:55 -9.1 °C -9.6 °C 34164.7 hPa West 18.2 km/h 20.8 km/h 95 % 109.22 mm 0 W/m2
Avec l'autorisation de Weather Underground - 1.75 mb